Time;durP1;ratioP1;P1;durP2;ratioP2;P2;SDS_P1;SDS_P2;PMS_P1;PMS_P2;Temp;Humidity;BMP_temperature;BMP_pressure;BME280_temperature;BME280_humidity;BME280_pressure;Samples;Min_cycle;Max_cycle;Signal;HPM_P1;HPM_P2
2021/08/13 00:02:07;;;;;;;3.40;2.15;;;;;;;27.71;40.33;99955.69;1747988;82;20988;-44
2021/08/13 00:04:34;;;;;;;2.37;2.17;;;;;;;27.68;40.39;99954.13;1748125;82;21062;-45
2021/08/13 00:07:03;;;;;;;2.47;2.00;;;;;;;27.69;40.41;99956.32;1748082;82;21035;-45
2021/08/13 00:09:30;;;;;;;1.98;1.87;;;;;;;27.67;40.43;99955.15;1717369;83;21036;-44
2021/08/13 00:11:56;;;;;;;2.25;2.05;;;;;;;27.65;40.43;99954.42;1699603;84;20997;-43
2021/08/13 00:14:24;;;;;;;2.33;2.12;;;;;;;27.64;40.46;99950.52;1699707;83;21087;-43
2021/08/13 00:16:52;;;;;;;3.05;2.25;;;;;;;27.63;40.47;99949.68;1699539;83;21099;-44
2021/08/13 00:19:19;;;;;;;2.72;2.30;;;;;;;27.62;40.51;99953.38;1718894;81;21083;-44
2021/08/13 00:21:46;;;;;;;2.20;2.10;;;;;;;27.61;40.52;99953.05;1699403;83;21515;-45
2021/08/13 00:24:15;;;;;;;2.10;2.00;;;;;;;27.60;40.53;99952.69;1699954;84;21019;-44
2021/08/13 00:26:41;;;;;;;2.25;2.05;;;;;;;27.59;40.58;99955.06;1699689;83;21039;-44
2021/08/13 00:29:08;;;;;;;2.50;2.30;;;;;;;27.58;40.55;99948.78;1713884;83;21020;-44
2021/08/13 00:31:34;;;;;;;1.95;1.82;;;;;;;27.58;40.57;99953.34;1699853;84;21052;-44
2021/08/13 00:34:03;;;;;;;3.00;1.85;;;;;;;27.56;40.60;99949.95;1713573;83;21866;-45
2021/08/13 00:36:31;;;;;;;2.25;2.05;;;;;;;27.55;40.61;99952.30;1713544;83;21060;-47
2021/08/13 00:39:02;;;;;;;2.90;2.22;;;;;;;27.55;40.61;99951.78;1699838;84;22013;-42
2021/08/13 00:41:28;;;;;;;2.20;1.92;;;;;;;27.53;40.62;99952.95;1679314;84;20981;-46
2021/08/13 00:43:56;;;;;;;2.33;2.15;;;;;;;27.53;40.68;99961.06;1730310;82;22012;-45
2021/08/13 00:46:23;;;;;;;2.30;2.10;;;;;;;27.52;40.67;99964.75;1728968;82;21047;-43
2021/08/13 00:48:52;;;;;;;2.40;2.30;;;;;;;27.51;40.67;99969.32;1746641;81;20999;-44
2021/08/13 00:51:25;;;;;;;2.02;1.92;;;;;;;27.50;40.72;99968.12;1744843;81;26585;-43
2021/08/13 00:53:54;;;;;;;2.02;1.92;;;;;;;27.49;40.72;99967.28;1747727;81;21029;-45
2021/08/13 00:56:24;;;;;;;3.15;2.25;;;;;;;27.48;40.73;99971.48;1737015;80;21066;-47
2021/08/13 00:58:53;;;;;;;2.22;1.80;;;;;;;27.47;40.78;99973.34;1680265;83;21093;-44
2021/08/13 01:01:27;;;;;;;;;;;;;;;27.46;40.76;99976.19;1728884;83;21117;-46
2021/08/13 01:03:55;;;;;;;2.10;2.00;;;;;;;27.46;40.78;99973.49;1727011;83;20411;-45
2021/08/13 01:06:23;;;;;;;2.12;2.02;;;;;;;27.45;40.79;99982.59;1718938;83;21054;-43
2021/08/13 01:08:51;;;;;;;3.00;2.12;;;;;;;27.41;40.81;99981.53;1685108;83;21062;-44
2021/08/13 01:11:44;;;;;;;2.27;2.10;;;;;;;27.42;40.81;99976.48;1717240;83;21534;-43
2021/08/13 01:14:29;;;;;;;4.65;2.15;;;;;;;27.41;40.86;99988.29;1685500;83;20990;-44
2021/08/13 01:16:57;;;;;;;2.30;2.10;;;;;;;27.39;40.88;99976.78;1718577;83;21046;-44
2021/08/13 01:19:38;;;;;;;2.67;2.00;;;;;;;27.39;40.89;99982.70;1685647;83;21058;-45
2021/08/13 01:22:22;;;;;;;2.02;1.92;;;;;;;27.38;40.86;99985.87;1717729;83;21070;-44
2021/08/13 01:24:50;;;;;;;1.90;1.80;;;;;;;27.37;40.88;99989.60;1719137;83;20976;-45
2021/08/13 01:27:25;;;;;;;3.05;2.02;;;;;;;27.36;40.90;99989.75;1718969;83;21034;-44
2021/08/13 01:30:10;;;;;;;1.80;1.70;;;;;;;27.34;40.92;99989.89;1682522;83;21128;-44
2021/08/13 01:33:08;;;;;;;1.95;1.80;;;;;;;27.34;40.93;99988.55;1712170;83;21034;-46
2021/08/13 01:35:39;;;;;;;2.40;2.10;;;;;;;27.32;40.97;99987.85;1712465;83;21587;-43
2021/08/13 01:38:13;;;;;;;3.42;2.25;;;;;;;27.32;40.97;99989.20;1702889;83;22112;-44
2021/08/13 01:40:46;;;;;;;4.05;2.22;;;;;;;27.30;40.98;99991.18;1703092;84;20995;-49
2021/08/13 01:43:19;;;;;;;2.25;2.15;;;;;;;27.30;41.02;99988.98;1685155;83;23977;-46
2021/08/13 01:45:47;;;;;;;2.10;2.00;;;;;;;27.29;41.03;99992.20;1708916;83;21035;-45
2021/08/13 01:48:14;;;;;;;2.22;2.02;;;;;;;27.28;41.01;99998.55;1708877;83;21094;-45
2021/08/13 01:50:41;;;;;;;2.75;2.10;;;;;;;27.28;41.04;100003.96;1688491;83;21166;-45
2021/08/13 01:53:09;;;;;;;2.77;2.58;;;;;;;27.27;41.06;100004.98;1709088;83;21026;-46
2021/08/13 01:55:36;;;;;;;2.22;2.00;;;;;;;27.25;41.10;100001.55;1688795;83;21047;-44
2021/08/13 01:58:04;;;;;;;2.30;2.10;;;;;;;27.24;41.09;100010.67;1688176;83;20955;-44
2021/08/13 02:00:33;;;;;;;2.90;2.65;;;;;;;27.24;41.11;100012.03;1709087;83;21129;-45
2021/08/13 02:03:00;;;;;;;1.90;1.60;;;;;;;27.23;41.13;100014.36;1703095;83;22631;-44
2021/08/13 02:05:30;;;;;;;2.12;2.00;;;;;;;27.22;41.15;100016.73;1709082;83;21012;-46
2021/08/13 02:08:00;;;;;;;2.02;1.92;;;;;;;27.22;41.15;100012.17;1706068;83;21071;-45
2021/08/13 02:10:28;;;;;;;1.95;1.85;;;;;;;27.22;41.15;100016.73;1693824;83;21057;-45
2021/08/13 02:12:55;;;;;;;2.17;1.98;;;;;;;27.21;41.13;100019.08;1685053;82;21037;-44
2021/08/13 02:15:22;;;;;;;1.80;1.70;;;;;;;27.20;41.17;100025.46;1722073;82;21110;-45
2021/08/13 02:18:04;;;;;;;2.62;1.90;;;;;;;27.20;41.21;100026.81;1717365;83;21069;-46
2021/08/13 02:20:31;;;;;;;1.85;1.75;;;;;;;27.19;41.20;100042.69;1721956;83;20943;-44
2021/08/13 02:22:58;;;;;;;2.10;2.00;;;;;;;27.17;41.19;100036.08;1685275;83;21594;-44
2021/08/13 02:25:26;;;;;;;1.95;1.72;;;;;;;27.18;41.21;100038.27;1722194;83;21006;-44
2021/08/13 02:27:54;;;;;;;2.70;1.75;;;;;;;27.16;41.24;100041.63;1721889;82;21017;-45
2021/08/13 02:30:22;;;;;;;2.02;1.90;;;;;;;27.15;41.25;100035.86;1722166;82;21096;-44
2021/08/13 02:32:49;;;;;;;3.45;1.77;;;;;;;27.15;41.23;100041.27;1721805;83;21045;-44
2021/08/13 02:35:17;;;;;;;2.30;2.10;;;;;;;27.14;41.26;100047.69;1722017;82;21556;-45
2021/08/13 02:37:55;;;;;;;2.00;1.87;;;;;;;27.13;41.25;100050.02;1695605;82;21028;-44
2021/08/13 02:40:31;;;;;;;2.10;2.00;;;;;;;27.13;41.29;100048.16;1722336;82;21080;-47
2021/08/13 02:43:07;;;;;;;1.70;1.60;;;;;;;27.12;41.28;100045.61;1709580;80;20922;-44
2021/08/13 02:45:39;;;;;;;1.80;1.70;;;;;;;27.12;41.30;100048.30;1765170;80;21081;-43
2021/08/13 02:48:06;;;;;;;2.37;1.80;;;;;;;27.11;41.28;100042.57;1724811;81;21076;-44
2021/08/13 02:50:38;;;;;;;2.00;1.90;;;;;;;27.11;41.29;100043.92;1697345;83;21017;-45
2021/08/13 02:53:11;;;;;;;2.08;1.85;;;;;;;27.11;41.30;100043.92;1760486;81;21086;-44
2021/08/13 02:55:51;;;;;;;2.27;1.75;;;;;;;27.11;41.29;100048.81;1760487;81;21505;-43
2021/08/13 02:58:22;;;;;;;2.58;2.05;;;;;;;27.11;41.28;100049.32;1674787;83;21097;-43
2021/08/13 03:00:49;;;;;;;1.87;1.77;;;;;;;27.11;41.27;100052.02;1713448;83;20983;-44
2021/08/13 03:03:18;;;;;;;2.30;2.20;;;;;;;27.12;41.29;100057.76;1747783;81;21490;-48
2021/08/13 03:05:49;;;;;;;1.90;1.80;;;;;;;27.11;41.25;100053.38;1748323;80;21920;-44
2021/08/13 03:08:18;;;;;;;1.95;1.85;;;;;;;27.12;41.28;100061.81;1752175;81;20980;-45
2021/08/13 03:10:47;;;;;;;3.25;1.92;;;;;;;27.13;41.23;100066.23;1723683;81;20975;-44
2021/08/13 03:13:16;;;;;;;2.10;1.90;;;;;;;27.13;41.19;100056.27;1750956;81;21102;-44
2021/08/13 03:15:44;;;;;;;2.12;1.92;;;;;;;27.14;41.19;100059.33;1750657;81;21071;-44
2021/08/13 03:18:10;;;;;;;1.95;1.85;;;;;;;27.15;41.17;100062.88;1751223;81;21113;-44
2021/08/13 03:20:39;;;;;;;1.82;1.60;;;;;;;27.16;41.13;100068.13;1750793;81;21569;-45
2021/08/13 03:23:08;;;;;;;1.80;1.70;;;;;;;27.19;41.07;100070.55;1750719;81;21098;-44
2021/08/13 03:25:36;;;;;;;1.92;1.80;;;;;;;27.28;40.99;100074.20;1724102;81;21137;-45
2021/08/13 03:28:11;;;;;;;1.67;1.47;;;;;;;27.42;40.71;100069.72;1750685;81;21026;-44
2021/08/13 03:30:42;;;;;;;2.12;1.92;;;;;;;27.63;40.31;100072.67;1749339;81;23338;-45
2021/08/13 03:33:13;;;;;;;1.75;1.65;;;;;;;27.87;40.00;100079.38;1725154;81;21589;-45
2021/08/13 03:35:39;;;;;;;1.80;1.70;;;;;;;28.14;39.50;100076.69;1723533;81;21081;-45
2021/08/13 03:38:07;;;;;;;1.90;1.80;;;;;;;28.42;39.00;100075.25;1750328;81;20975;-45
2021/08/13 03:40:34;;;;;;;2.12;1.92;;;;;;;28.70;38.50;100071.98;1750486;81;21046;-45
2021/08/13 03:43:00;;;;;;;2.87;2.00;;;;;;;28.97;38.01;100070.66;1731292;81;21138;-45
2021/08/13 03:45:28;;;;;;;1.75;1.55;;;;;;;29.26;37.49;100075.27;1750311;81;21031;-44
2021/08/13 03:47:54;;;;;;;1.75;1.65;;;;;;;29.55;36.95;100073.20;1750403;82;21621;-46
2021/08/13 03:50:23;;;;;;;1.92;1.80;;;;;;;29.84;36.43;100078.25;1750377;81;21031;-46
2021/08/13 03:52:51;;;;;;;1.90;1.70;;;;;;;30.13;35.91;100075.65;1750693;82;21034;-44
2021/08/13 03:55:19;;;;;;;1.85;1.75;;;;;;;30.41;35.38;100079.44;1750504;81;21027;-45
2021/08/13 03:57:46;;;;;;;1.62;1.52;;;;;;;30.68;34.87;100083.20;1750263;82;21079;-45
2021/08/13 04:00:14;;;;;;;1.77;1.67;;;;;;;30.95;34.40;100087.97;1720911;82;21168;-47
2021/08/13 04:02:45;;;;;;;1.87;1.77;;;;;;;31.20;33.93;100082.47;1750295;81;21518;-45
2021/08/13 04:05:13;;;;;;;1.65;1.55;;;;;;;31.44;33.48;100081.58;1751728;81;22263;-47
2021/08/13 04:07:42;;;;;;;1.80;1.70;;;;;;;31.67;33.09;100084.38;1752088;81;20987;-46
2021/08/13 04:10:10;;;;;;;1.80;1.60;;;;;;;31.88;32.73;100085.67;1746411;81;21078;-44
2021/08/13 04:12:37;;;;;;;1.50;1.40;;;;;;;32.08;32.37;100088.30;1745662;82;21100;-45
2021/08/13 04:15:09;;;;;;;1.70;1.60;;;;;;;32.26;32.03;100088.00;1743743;82;21028;-45
2021/08/13 04:17:36;;;;;;;1.65;1.55;;;;;;;32.43;31.72;100086.03;1745661;82;21113;-44
2021/08/13 04:20:06;;;;;;;1.65;1.50;;;;;;;32.58;31.43;100081.98;1745449;82;21623;-44
2021/08/13 04:22:34;;;;;;;1.85;1.72;;;;;;;32.74;31.19;100085.97;1716334;82;21165;-45
2021/08/13 04:25:02;;;;;;;2.75;1.90;;;;;;;32.88;30.90;100091.11;1744268;81;21019;-46
2021/08/13 04:27:30;;;;;;;1.60;1.50;;;;;;;33.02;30.70;100094.05;1706202;82;20995;-45
2021/08/13 04:29:56;;;;;;;1.72;1.62;;;;;;;33.13;30.47;100094.45;1740790;82;22116;-45
2021/08/13 04:32:23;;;;;;;2.17;1.87;;;;;;;33.23;30.30;100105.13;1740658;82;21108;-44
2021/08/13 04:34:49;;;;;;;1.85;1.45;;;;;;;33.33;30.09;100102.96;1740698;82;21600;-44
2021/08/13 04:37:17;;;;;;;1.90;1.80;;;;;;;33.43;29.98;100103.22;1738185;81;21126;-45
2021/08/13 04:39:44;;;;;;;1.82;1.70;;;;;;;33.50;29.81;100100.05;1722171;81;21025;-47
2021/08/13 04:42:10;;;;;;;1.92;1.80;;;;;;;33.54;29.69;100101.39;1751925;80;21073;-45
2021/08/13 04:44:38;;;;;;;1.82;1.72;;;;;;;33.56;29.60;100104.77;1750647;81;21143;-46
2021/08/13 04:47:06;;;;;;;3.25;1.45;;;;;;;33.53;29.63;100107.87;1720918;82;21026;-45
2021/08/13 04:49:33;;;;;;;1.70;1.55;;;;;;;33.42;29.70;100102.88;1750302;82;21031;-45
2021/08/13 04:52:04;;;;;;;1.57;1.37;;;;;;;33.25;29.86;100115.31;1750396;81;21043;-45
2021/08/13 04:54:32;;;;;;;1.80;1.67;;;;;;;33.06;30.08;100117.20;1750434;82;21027;-47
2021/08/13 04:57:00;;;;;;;1.70;1.60;;;;;;;32.84;30.37;100114.86;1750332;82;21143;-44
2021/08/13 04:59:27;;;;;;;1.77;1.67;;;;;;;32.61;30.67;100114.34;1750510;82;21455;-44
2021/08/13 05:01:55;;;;;;;2.15;1.50;;;;;;;32.39;30.97;100120.09;1720137;82;21109;-47
2021/08/13 05:04:22;;;;;;;1.65;1.55;;;;;;;32.18;31.30;100117.51;1716131;81;21108;-45
2021/08/13 05:06:49;;;;;;;2.10;1.87;;;;;;;31.99;31.51;100113.83;1751884;81;20986;-45
2021/08/13 05:09:16;;;;;;;1.70;1.60;;;;;;;31.80;31.80;100113.23;1705565;83;22373;-46
2021/08/13 05:11:44;;;;;;;1.82;1.70;;;;;;;31.63;32.09;100116.53;1701527;83;21051;-44
2021/08/13 05:14:11;;;;;;;1.52;1.42;;;;;;;31.48;32.29;100115.54;1701760;84;20997;-44
2021/08/13 05:16:39;;;;;;;1.65;1.55;;;;;;;31.36;32.53;100112.34;1701931;83;21115;-45
2021/08/13 05:19:06;;;;;;;1.60;1.50;;;;;;;31.24;32.70;100119.17;1701773;84;21063;-45
2021/08/13 05:21:38;;;;;;;1.37;1.27;;;;;;;31.13;32.90;100119.53;1701835;83;21569;-45
2021/08/13 05:24:06;;;;;;;1.85;1.67;;;;;;;31.04;33.04;100130.92;1701656;83;21032;-44
2021/08/13 05:26:33;;;;;;;1.67;1.57;;;;;;;30.93;33.24;100125.28;1702042;84;21095;-45
2021/08/13 05:29:00;;;;;;;1.65;1.55;;;;;;;30.86;33.35;100131.06;1701781;83;21071;-44
2021/08/13 05:31:26;;;;;;;2.00;1.90;;;;;;;30.76;33.47;100124.44;1702060;84;21080;-45
2021/08/13 05:33:53;;;;;;;1.82;1.72;;;;;;;30.70;33.54;100123.77;1701681;84;21047;-44
2021/08/13 05:36:19;;;;;;;3.62;1.70;;;;;;;30.64;33.69;100129.35;1701743;84;20989;-45
2021/08/13 05:38:46;;;;;;;1.45;1.35;;;;;;;30.59;33.80;100125.45;1715456;83;21060;-45
2021/08/13 05:41:13;;;;;;;1.77;1.67;;;;;;;30.51;33.88;100131.23;1722396;83;21099;-44
2021/08/13 05:43:42;;;;;;;1.67;1.47;;;;;;;30.47;34.02;100127.64;1738256;81;21057;-45
2021/08/13 05:46:09;;;;;;;1.70;1.60;;;;;;;30.42;34.08;100132.22;1752040;81;21132;-45
2021/08/13 05:48:36;;;;;;;2.65;1.47;;;;;;;30.37;34.16;100144.92;1724420;81;21038;-49
2021/08/13 05:51:03;;;;;;;1.65;1.55;;;;;;;30.31;34.29;100142.86;1752383;81;21065;-46
2021/08/13 05:53:31;;;;;;;1.98;1.60;;;;;;;30.26;34.35;100138.92;1752156;81;21077;-44
2021/08/13 05:55:57;;;;;;;1.67;1.52;;;;;;;30.22;34.50;100139.77;1751975;81;21013;-45
2021/08/13 05:58:24;;;;;;;1.50;1.40;;;;;;;30.17;34.57;100141.62;1752182;81;21603;-45
2021/08/13 06:00:52;;;;;;;2.02;1.67;;;;;;;30.14;34.64;100141.09;1751876;81;21017;-45
2021/08/13 06:03:19;;;;;;;1.95;1.77;;;;;;;30.10;34.70;100142.45;1724219;81;21114;-46
2021/08/13 06:05:47;;;;;;;1.80;1.70;;;;;;;30.07;34.77;100145.49;1722479;83;21088;-44
2021/08/13 06:08:16;;;;;;;3.65;1.62;;;;;;;30.01;34.83;100145.14;1722234;82;21079;-45
2021/08/13 06:10:43;;;;;;;1.92;1.82;;;;;;;29.98;34.97;100150.89;1694153;83;22315;-43
2021/08/13 06:13:10;;;;;;;2.42;2.20;;;;;;;29.94;35.05;100154.95;1720742;83;20926;-43
2021/08/13 06:15:37;;;;;;;1.77;1.67;;;;;;;29.91;35.11;100148.98;1694289;83;21014;-44
2021/08/13 06:18:04;;;;;;;1.60;1.50;;;;;;;29.87;35.20;100148.46;1720500;83;21045;-45
2021/08/13 06:20:33;;;;;;;2.80;1.50;;;;;;;29.85;35.23;100150.49;1720675;83;21019;-45
2021/08/13 06:23:05;;;;;;;2.02;1.57;;;;;;;29.82;35.29;100149.45;1667891;84;21683;-44
2021/08/13 06:25:34;;;;;;;2.22;1.80;;;;;;;29.79;35.36;100150.65;1728401;82;21021;-43
2021/08/13 06:28:00;;;;;;;1.30;1.20;;;;;;;29.76;35.42;100156.36;1683204;85;21039;-43
2021/08/13 06:30:27;;;;;;;1.90;1.67;;;;;;;29.73;35.49;100157.19;1694313;83;21066;-44
2021/08/13 06:32:53;;;;;;;1.65;1.55;;;;;;;29.71;35.54;100149.73;1694163;83;21085;-43
2021/08/13 06:35:22;;;;;;;1.70;1.60;;;;;;;29.68;35.59;100155.48;1720557;83;23090;-43
2021/08/13 06:37:51;;;;;;;1.67;1.57;;;;;;;29.65;35.63;100150.70;1719572;83;21073;-44
2021/08/13 06:40:18;;;;;;;2.12;1.70;;;;;;;29.63;35.67;100146.46;1661703;86;21064;-46
2021/08/13 06:42:45;;;;;;;1.60;1.50;;;;;;;29.61;35.69;100150.69;1724659;80;21164;-44
2021/08/13 06:45:17;;;;;;;1.80;1.47;;;;;;;29.59;35.76;100151.36;1739950;81;21553;-43
2021/08/13 06:47:43;;;;;;;1.72;1.62;;;;;;;29.58;35.79;100155.07;1708861;83;21836;-44
2021/08/13 06:50:12;;;;;;;1.80;1.70;;;;;;;29.55;35.81;100159.45;1668930;84;21035;-44
2021/08/13 06:52:40;;;;;;;1.82;1.65;;;;;;;29.54;35.82;100158.25;1689153;83;21035;-43
2021/08/13 06:55:09;;;;;;;1.65;1.55;;;;;;;29.52;35.89;100161.16;1693953;84;21054;-43
2021/08/13 06:57:35;;;;;;;1.70;1.60;;;;;;;29.50;35.90;100159.60;1689534;83;21560;-43
2021/08/13 07:00:05;;;;;;;1.17;1.07;;;;;;;29.49;35.91;100162.83;1672812;82;21276;-45
2021/08/13 07:02:33;;;;;;;1.32;1.30;;;;;;;29.48;35.96;100165.18;1709211;83;21010;-44
2021/08/13 07:04:59;;;;;;;1.45;1.35;;;;;;;29.46;36.00;100163.14;1707697;83;21029;-43
2021/08/13 07:07:27;;;;;;;1.72;1.62;;;;;;;29.45;36.01;100161.43;1669049;84;21126;-45
2021/08/13 07:09:54;;;;;;;1.70;1.60;;;;;;;29.44;36.05;100163.30;1685934;84;21063;-43
2021/08/13 07:12:21;;;;;;;1.85;1.40;;;;;;;29.43;36.05;100160.23;1667167;86;22188;-44
2021/08/13 07:14:48;;;;;;;1.50;1.40;;;;;;;29.42;36.05;100161.74;1692260;84;21663;-44
2021/08/13 07:17:15;;;;;;;1.75;1.55;;;;;;;29.43;36.07;100156.67;1706308;83;21407;-43
2021/08/13 07:19:41;;;;;;;1.72;1.62;;;;;;;29.40;36.09;100159.70;1692481;83;21016;-44
2021/08/13 07:22:08;;;;;;;1.55;1.45;;;;;;;29.39;36.10;100157.51;1692674;83;21052;-43
2021/08/13 07:24:36;;;;;;;1.60;1.50;;;;;;;29.38;36.13;100165.80;1692495;84;21554;-44
2021/08/13 07:27:03;;;;;;;1.65;1.55;;;;;;;29.37;36.15;100168.15;1692381;84;21542;-44
2021/08/13 07:29:30;;;;;;;1.65;1.47;;;;;;;29.36;36.17;100165.95;1692567;83;21096;-45
2021/08/13 07:31:57;;;;;;;1.50;1.40;;;;;;;29.35;36.17;100169.66;1692150;84;21020;-44
2021/08/13 07:34:24;;;;;;;1.57;1.47;;;;;;;29.35;36.21;100167.47;1692441;83;21550;-44
2021/08/13 07:36:51;;;;;;;1.80;1.70;;;;;;;29.36;36.21;100174.60;1692603;84;22312;-43
2021/08/13 07:39:19;;;;;;;1.57;1.47;;;;;;;29.34;36.23;100172.56;1695282;83;21048;-44
2021/08/13 07:41:46;;;;;;;1.50;1.40;;;;;;;29.35;36.23;100178.30;1697003;83;21131;-44
2021/08/13 07:44:13;;;;;;;1.90;1.80;;;;;;;29.33;36.27;100171.69;1695985;84;21526;-44
2021/08/13 07:46:39;;;;;;;1.72;1.62;;;;;;;29.33;36.27;100176.27;1695692;84;21022;-45
2021/08/13 07:49:06;;;;;;;2.22;1.45;;;;;;;29.33;36.23;100172.20;1695062;84;23306;-46
2021/08/13 07:51:32;;;;;;;1.60;1.50;;;;;;;29.32;36.27;100174.07;1695483;84;21383;-44
2021/08/13 07:53:59;;;;;;;1.65;1.42;;;;;;;29.33;36.29;100172.20;1695373;84;21012;-44
2021/08/13 07:56:26;;;;;;;1.42;1.32;;;;;;;29.33;36.30;100169.48;1675673;84;21086;-45
2021/08/13 07:58:52;;;;;;;1.57;1.47;;;;;;;29.33;36.33;100161.36;1675533;84;21126;-44
2021/08/13 08:01:21;;;;;;;1.62;1.52;;;;;;;29.32;36.27;100158.29;1675386;84;21904;-45
2021/08/13 08:03:47;;;;;;;1.67;1.57;;;;;;;29.33;36.30;100165.42;1674730;84;20960;-44
2021/08/13 08:06:15;;;;;;;1.50;1.40;;;;;;;29.32;36.29;100160.52;1675654;84;21065;-44
2021/08/13 08:08:42;;;;;;;1.42;1.32;;;;;;;29.32;36.29;100158.29;1696037;84;21091;-44
2021/08/13 08:11:09;;;;;;;1.42;1.32;;;;;;;29.33;36.34;100155.94;1676777;84;21169;-44
2021/08/13 08:13:36;;;;;;;1.85;1.50;;;;;;;29.32;36.34;100152.87;1677110;84;21215;-44
2021/08/13 08:16:03;;;;;;;1.55;1.45;;;;;;;29.32;36.31;100155.58;1697273;84;21046;-46
2021/08/13 08:18:30;;;;;;;1.52;1.42;;;;;;;29.31;36.31;100157.45;1676917;84;21023;-44
2021/08/13 08:20:58;;;;;;;1.72;1.62;;;;;;;29.32;36.28;100158.29;1696949;84;21572;-43
2021/08/13 08:23:26;;;;;;;1.80;1.70;;;;;;;29.30;36.31;100158.97;1676774;84;21069;-44
2021/08/13 08:25:52;;;;;;;1.72;1.62;;;;;;;29.31;36.32;100162.03;1697116;84;21141;-45
2021/08/13 08:28:19;;;;;;;1.50;1.40;;;;;;;29.30;36.37;100163.03;1697185;84;21557;-46
2021/08/13 08:30:46;;;;;;;1.60;1.50;;;;;;;29.31;36.32;100159.32;1697037;84;21074;-45
2021/08/13 08:33:12;;;;;;;1.62;1.52;;;;;;;29.31;36.34;100161.52;1697011;84;21038;-43
2021/08/13 08:35:39;;;;;;;1.80;1.70;;;;;;;29.32;36.35;100158.29;1697142;84;22140;-43
2021/08/13 08:38:05;;;;;;;1.75;1.65;;;;;;;29.33;36.37;100149.16;1696946;83;21113;-43
2021/08/13 08:40:36;;;;;;;1.62;1.52;;;;;;;29.33;36.36;100155.94;1693895;84;22124;-46
2021/08/13 08:43:06;;;;;;;1.50;1.40;;;;;;;29.33;36.35;100160.84;1693422;84;21059;-44
2021/08/13 08:45:36;;;;;;;1.50;1.35;;;;;;;29.33;36.35;100160.00;1670364;84;21087;-46
2021/08/13 08:48:06;;;;;;;1.60;1.50;;;;;;;29.34;36.33;100160.36;1692296;84;21533;-43
2021/08/13 08:50:34;;;;;;;1.67;1.57;;;;;;;29.35;36.33;100155.27;1671160;83;21134;-45
2021/08/13 08:53:04;;;;;;;1.82;1.52;;;;;;;29.36;36.24;100150.20;1718885;83;20995;-44
2021/08/13 08:55:32;;;;;;;1.50;1.40;;;;;;;29.36;36.27;100161.89;1723117;82;20975;-44
2021/08/13 08:57:59;;;;;;;1.70;1.60;;;;;;;29.38;36.28;100161.73;1700110;83;21025;-43
2021/08/13 09:00:25;;;;;;;1.95;1.77;;;;;;;29.37;36.25;100166.31;1722738;83;21031;-43
2021/08/13 09:02:51;;;;;;;2.85;1.55;;;;;;;29.39;36.24;100162.09;1695914;83;21191;-44
2021/08/13 09:05:18;;;;;;;1.72;1.30;;;;;;;29.39;36.27;100151.25;1693393;83;21336;-44
2021/08/13 09:07:44;;;;;;;2.60;1.65;;;;;;;29.40;36.24;100156.99;1700696;83;21044;-44
2021/08/13 09:10:12;;;;;;;1.30;1.30;;;;;;;29.41;36.23;100163.61;1704160;83;21022;-43
2021/08/13 09:12:39;;;;;;;1.47;1.37;;;;;;;29.41;36.25;100158.70;1719947;83;20955;-44
2021/08/13 09:15:28;;;;;;;1.47;1.37;;;;;;;29.42;36.23;100154.97;1720063;83;21161;-43
2021/08/13 09:18:21;;;;;;;1.60;1.50;;;;;;;29.43;36.19;100154.81;1719943;82;21077;-43
2021/08/13 09:20:56;;;;;;;1.40;1.30;;;;;;;29.44;36.13;100159.75;1699492;83;21516;-43
2021/08/13 09:23:45;;;;;;;1.50;1.40;;;;;;;29.45;36.15;100150.10;1719875;83;21038;-44
2021/08/13 09:26:20;;;;;;;1.62;1.50;;;;;;;29.45;36.13;100142.45;1719589;83;21086;-44
2021/08/13 09:29:05;;;;;;;1.57;1.47;;;;;;;29.47;36.10;100145.84;1699223;83;21835;-44
2021/08/13 09:31:39;;;;;;;2.40;1.32;;;;;;;29.46;36.12;100142.81;1707276;83;21019;-44
2021/08/13 09:34:12;;;;;;;1.90;1.57;;;;;;;29.46;36.12;100148.23;1719565;83;21583;-44
2021/08/13 09:36:50;;;;;;;1.90;1.70;;;;;;;29.47;36.17;100136.36;1699661;83;21074;-44
2021/08/13 09:39:24;;;;;;;1.75;1.57;;;;;;;29.46;36.18;100140.09;1719701;82;21019;-42
2021/08/13 09:41:53;;;;;;;1.82;1.47;;;;;;;29.46;36.16;100145.52;1700242;83;21809;-44
2021/08/13 09:44:26;;;;;;;1.57;1.47;;;;;;;29.48;36.16;100146.20;1719709;83;21493;-43
2021/08/13 09:47:08;;;;;;;2.05;1.95;;;;;;;29.49;36.17;100138.91;1719855;83;21062;-43
2021/08/13 09:49:36;;;;;;;1.75;1.65;;;;;;;29.50;36.14;100149.59;1719872;83;21034;-43
2021/08/13 09:52:17;;;;;;;1.40;1.30;;;;;;;29.50;36.09;100141.46;1720060;82;21017;-43
2021/08/13 09:54:48;;;;;;;1.50;1.32;;;;;;;29.52;36.06;100153.02;1699322;83;21054;-44
2021/08/13 09:57:17;;;;;;;1.30;1.25;;;;;;;29.52;36.07;100153.02;1720227;83;21042;-43
2021/08/13 10:00:04;;;;;;;1.45;1.35;;;;;;;29.52;36.10;100144.89;1719837;82;21006;-43
2021/08/13 10:02:44;;;;;;;1.67;1.57;;;;;;;29.52;36.09;100153.02;1699381;83;21615;-45
2021/08/13 10:05:22;;;;;;;2.15;1.40;;;;;;;29.54;36.08;100152.83;1719937;82;20962;-44
2021/08/13 10:07:59;;;;;;;1.40;1.30;;;;;;;29.54;36.08;100146.93;1720081;82;21505;-44
2021/08/13 10:10:31;;;;;;;1.72;1.50;;;;;;;29.56;36.05;100147.61;1719772;82;21481;-46
2021/08/13 10:13:00;;;;;;;1.40;1.30;;;;;;;29.55;36.02;100148.61;1699556;83;21026;-44
2021/08/13 10:15:36;;;;;;;1.20;1.10;;;;;;;29.57;36.04;100145.26;1719746;82;21014;-44
2021/08/13 10:18:10;;;;;;;1.50;1.40;;;;;;;29.57;36.00;100144.38;1709394;83;21082;-44
2021/08/13 10:20:42;;;;;;;1.50;1.40;;;;;;;29.57;36.04;100145.26;1709287;83;21545;-44
2021/08/13 10:23:10;;;;;;;1.32;1.22;;;;;;;29.58;35.99;100146.09;1684555;83;21027;-44
2021/08/13 10:25:38;;;;;;;1.30;1.20;;;;;;;29.58;36.02;100141.52;1685736;83;20967;-45
2021/08/13 10:28:05;;;;;;;1.15;1.12;;;;;;;29.60;35.95;100140.00;1685096;83;21030;-44
2021/08/13 10:30:33;;;;;;;1.37;1.27;;;;;;;29.60;35.93;100142.20;1709172;83;21007;-44
2021/08/13 10:33:02;;;;;;;1.20;1.10;;;;;;;29.62;35.86;100152.40;1685744;83;22227;-44
2021/08/13 10:35:35;;;;;;;1.50;1.40;;;;;;;29.63;35.87;100151.37;1709242;83;21023;-46
2021/08/13 10:38:03;;;;;;;3.17;1.50;;;;;;;29.65;35.90;100146.63;1685672;83;21035;-43
2021/08/13 10:40:31;;;;;;;1.62;1.40;;;;;;;29.67;35.89;100139.69;1741920;82;21051;-44
2021/08/13 10:42:59;;;;;;;1.42;1.32;;;;;;;29.69;35.82;100132.75;1750263;81;21539;-44
2021/08/13 10:45:30;;;;;;;1.30;1.20;;;;;;;29.71;35.77;100132.11;1720748;82;21191;-45
2021/08/13 10:48:12;;;;;;;1.67;1.35;;;;;;;29.71;35.77;100134.81;1720524;82;21094;-44
2021/08/13 10:50:39;;;;;;;1.42;1.25;;;;;;;29.72;35.75;100128.36;1750569;81;21038;-44
2021/08/13 10:53:31;;;;;;;1.40;1.30;;;;;;;29.73;35.75;100136.86;1721067;82;21074;-44
2021/08/13 10:56:02;;;;;;;1.50;1.40;;;;;;;29.73;35.79;100135.50;1682811;84;21038;-43
2021/08/13 10:58:43;;;;;;;1.57;1.47;;;;;;;29.74;35.77;100129.04;1750143;82;21146;-44
2021/08/13 11:01:23;;;;;;;1.60;1.50;;;;;;;29.74;35.76;100132.63;1721476;82;21042;-45
2021/08/13 11:04:04;;;;;;;1.35;1.25;;;;;;;29.75;35.74;100133.47;1750859;81;21099;-45
2021/08/13 11:06:42;;;;;;;1.45;1.35;;;;;;;29.74;35.76;100131.75;1751685;81;21005;-43
2021/08/13 11:09:23;;;;;;;1.50;1.40;;;;;;;29.75;35.74;100132.11;1747525;81;21521;-45
2021/08/13 11:11:57;;;;;;;1.30;1.20;;;;;;;29.75;35.73;100136.17;1739555;82;21299;-47
2021/08/13 11:14:48;;;;;;;1.30;1.20;;;;;;;29.76;35.73;100146.03;1745228;82;20947;-47
2021/08/13 11:17:43;;;;;;;1.82;1.12;;;;;;;29.75;35.73;100133.47;1745678;82;21038;-45
2021/08/13 11:20:15;;;;;;;1.40;1.30;;;;;;;29.74;35.68;100133.98;1745246;82;21085;-44
2021/08/13 11:22:43;;;;;;;1.42;1.32;;;;;;;29.76;35.72;100135.17;1744996;82;21718;-45
2021/08/13 11:25:13;;;;;;;1.40;1.30;;;;;;;29.76;35.76;100132.47;1745588;82;21141;-45
2021/08/13 11:27:49;;;;;;;1.27;1.27;;;;;;;29.77;35.72;100128.75;1745238;82;21059;-45
2021/08/13 11:30:42;;;;;;;1.00;1.00;;;;;;;29.78;35.66;100127.75;1721824;82;21603;-44
2021/08/13 11:33:36;;;;;;;1.40;1.30;;;;;;;29.79;35.68;100134.86;1745499;82;21038;-46
2021/08/13 11:36:04;;;;;;;1.40;1.30;;;;;;;29.79;35.71;100127.59;1716206;82;21592;-44
2021/08/13 11:38:48;;;;;;;1.72;1.47;;;;;;;29.78;35.71;100129.95;1745490;82;21117;-43
2021/08/13 11:41:24;;;;;;;1.50;1.40;;;;;;;29.78;35.69;100127.75;1743475;82;21046;-44